Topeka, KS (66601)

3:33 PM CDT on August 27, 2016 (GMT -0500)
Elmhurst | | Change Station

Elev 953 ft 39.05 °N, 95.70 °W | Updated 3 minutes ago

Clear
Clear
89.8 °F
Feels Like 98 °F
N
2.0
Wind Variable Wind from South

Today
High -- | Low -- °F
--% Chance of Precip.
Yesterday
High -- | Low -- °F
Precip. -- in
Pressure 29.98 in
Visibility 10.0 miles
Clouds Clear
Heat Index 98 °F
Dew Point 72 °F
Humidity 57%
Rainfall 0.25 in
Snow Depth Not available.
6:47 AM 7:59 PM
Waning Crescent, 21% visible
METAR KTOP 271953Z 14003KT 10SM CLR 29/22 A3000 RMK AO2 SLP151 T02940222 $
Pressure 29.98 in
Visibility 10.0 miles
Clouds Clear
Heat Index 98 °F
Dew Point 72 °F
Humidity 57%
Rainfall 0.25 in
Snow Depth Not available.
6:47 AM 7:59 PM
Waning Crescent, 21% visible
METAR KTOP 271953Z 14003KT 10SM CLR 29/22 A3000 RMK AO2 SLP151 T02940222 $

10-Day Weather Forecast

Almanac

Astronomy

Aug. 27, 2016 Rise Set
Actual Time
Civil Twilight
Nautical Twilight
Astronomical Twilight
Moon
Length of Visible Light
Length of Day
Tomorrow will be .
, % of the Moon is Illuminated

Today's Extremes

State Highs State Lows

Community

WunderPhotos

Upload Photos

1,935,434 photos uploaded!

WunderBlog® & News

Nearby

Air Quality

  Air Quality AQ Index Pollutant
Not available.

Snow Depth

Station Depth Elevation

Earthquake Activity

City Distance Mag. Time & Date
Minimum magnitude displayed is 2.5.

Coastal Water Temperatures

Place Temperature

Stations

Nearby Weather Stations

Station Location Temp. Windchill Dew Point Humidity Wind Precip. Elev Updated Type
                   

Watches & Warnings

There are currently no watches in effect.